Swaffham, United Kingdom
Current Conditions -  °F | °C
As of 11:50 PM on Thursday 27 Nov 2014 (Local Time) from EGYM Reporting Station
Haze Haze  
Wind Chill: 50°   Ceiling: 6000
Heat Index: 50°   Visibility: 2.5mi
Dew Point: 48°   Wind: 6mph
Humidity: 94%   Direction: 110°ESE
Pressure: 29.62"   Gusts: NA
Location:  52.65°N, 0.69°E
Report Text: EGYM 272350Z 11005KT 4000 BR FEW008 SCT040 BKN060 10/09 Q1003 GRN
Loading
Personal Weather Stations






























Interactive Weather Map New forecast layout! Learn more

10-Day Weather Forecast

Advertisements
Track Severe Weather on mobile